Time;durP1;ratioP1;P1;durP2;ratioP2;P2;SDS_P1;SDS_P2;PMS_P1;PMS_P2;Temp;Humidity;BMP_temperature;BMP_pressure;BME280_temperature;BME280_humidity;BME280_pressure;Samples;Min_cycle;Max_cycle;Signal;HPM_P1;HPM_P2
2021/12/17 00:03:08;;;;;;;51.88;14.95;;;;;;;7.36;100.00;104138.56;5102457;28;20036;-75
2021/12/17 00:05:13;;;;;;;50.15;14.00;;;;;;;7.37;100.00;104137.78;5106719;28;20093;-75
2021/12/17 00:07:39;;;;;;;57.97;13.65;;;;;;;7.37;100.00;104143.03;5101185;28;20052;-75
2021/12/17 00:10:09;;;;;;;57.75;15.73;;;;;;;7.38;100.00;104142.25;5109546;28;20047;-74
2021/12/17 00:12:35;;;;;;;64.97;15.05;;;;;;;7.39;100.00;104138.84;5077715;28;20035;-74
2021/12/17 00:15:01;;;;;;;60.53;14.60;;;;;;;7.40;100.00;104143.28;5089319;28;20023;-75
2021/12/17 00:17:33;;;;;;;53.80;13.27;;;;;;;7.40;100.00;104140.66;5094451;28;20043;-75
2021/12/17 00:20:26;;;;;;;55.33;13.98;;;;;;;7.40;100.00;104143.28;5095386;28;20052;-74
2021/12/17 00:52:39;;;;;;;83.45;16.75;;;;;;;7.36;100.00;104138.56;5087652;28;20384;-74
2021/12/17 00:55:07;;;;;;;70.40;15.18;;;;;;;7.37;100.00;104150.88;5108479;28;20492;-74
2021/12/17 00:57:40;;;;;;;71.00;15.52;;;;;;;7.36;100.00;104135.94;5082549;28;20066;-74
2021/12/17 01:00:11;;;;;;;83.97;15.60;;;;;;;7.36;100.00;104143.81;5094317;28;20100;-74
2021/12/17 01:02:38;;;;;;;74.60;13.55;;;;;;;7.38;100.00;104144.88;5092059;28;20035;-74
2021/12/17 01:05:10;;;;;;;94.90;15.32;;;;;;;7.37;100.00;104147.38;5079730;28;20063;-74
2021/12/17 01:07:40;;;;;;;72.68;16.02;;;;;;;7.37;100.00;104149.97;5102370;28;20554;-74
2021/12/17 01:10:10;;;;;;;82.57;15.20;;;;;;;7.37;100.00;104148.25;5085168;28;20035;-74
2021/12/17 01:12:36;;;;;;;95.97;15.80;;;;;;;7.39;100.00;104141.47;5110933;28;20095;-74
2021/12/17 01:15:05;;;;;;;69.30;14.77;;;;;;;7.38;100.00;104137.00;5088067;28;20020;-74
2021/12/17 01:17:33;;;;;;;72.47;14.80;;;;;;;7.39;100.00;104133.59;5092928;28;20028;-74
2021/12/17 01:22:53;;;;;;;68.18;16.60;;;;;;;7.39;100.00;104130.97;5099038;28;20055;-74
2021/12/17 01:35:19;;;;;;;74.53;16.03;;;;;;;7.40;100.00;104138.03;5099389;28;20158;-74
2021/12/17 01:36:22;;;;;;;54.55;15.88;;;;;;;7.41;100.00;104133.72;5110284;28;20054;-74
2021/12/17 01:39:52;;;;;;;62.97;15.88;;;;;;;7.40;100.00;104140.66;5103270;28;20028;-74
2021/12/17 01:44:14;;;;;;;67.50;18.58;;;;;;;7.42;100.00;104146.03;5114276;28;20118;-74
2021/12/17 01:46:41;;;;;;;81.20;20.98;;;;;;;7.42;100.00;104146.03;5107094;28;20020;-74
2021/12/17 02:00:03;;;;;;;75.00;21.80;;;;;;;7.40;100.00;104135.41;5087281;28;20445;-74
2021/12/17 02:02:32;;;;;;;90.93;23.58;;;;;;;7.39;100.00;104132.66;5095279;28;20433;-74
2021/12/17 02:04:58;;;;;;;64.55;22.83;;;;;;;7.40;100.00;104138.03;5082358;28;20040;-74
2021/12/17 02:07:25;;;;;;;70.75;23.10;;;;;;;7.40;100.00;104132.78;5083570;28;20027;-74
2021/12/17 02:22:10;;;;;;;68.05;23.58;;;;;;;7.40;100.00;104132.78;5105501;28;20449;-74
2021/12/17 02:32:12;;;;;;;73.90;27.25;;;;;;;7.41;100.00;104118.91;5107810;28;20024;-74
2021/12/17 02:37:12;;;;;;;72.10;28.65;;;;;;;7.42;100.00;104128.59;5102382;28;20054;-74
2021/12/17 02:47:33;;;;;;;95.15;31.10;;;;;;;7.45;100.00;104130.56;5103258;28;20070;-74
2021/12/17 02:49:58;;;;;;;87.57;31.80;;;;;;;7.43;100.00;104138.31;5081557;28;20051;-74
2021/12/17 02:52:29;;;;;;;98.28;31.85;;;;;;;7.46;100.00;104141.94;5110482;28;20024;-74
2021/12/17 02:54:57;;;;;;;93.25;30.65;;;;;;;7.47;100.00;104138.56;5112468;28;20383;-74
2021/12/17 02:57:23;;;;;;;89.57;31.10;;;;;;;7.45;100.00;104130.56;5098859;28;20024;-74
2021/12/17 02:59:49;;;;;;;101.25;31.77;;;;;;;7.45;100.00;104130.56;5094622;28;20035;-74
2021/12/17 03:02:15;;;;;;;106.50;31.05;;;;;;;7.43;100.00;104125.22;5111462;28;20152;-74
2021/12/17 03:04:41;;;;;;;110.28;30.30;;;;;;;7.42;100.00;104126.00;5100876;28;20081;-74
2021/12/17 03:07:11;;;;;;;91.20;27.73;;;;;;;7.41;100.00;104123.25;5101870;28;20032;-74
2021/12/17 03:10:12;;;;;;;94.55;29.17;;;;;;;7.40;100.00;104122.31;5083749;28;20019;-74
2021/12/17 03:12:57;;;;;;;88.38;26.33;;;;;;;7.40;100.00;104121.41;5096756;28;20038;-74
2021/12/17 03:23:27;;;;;;;93.55;29.55;;;;;;;7.35;100.00;104118.41;5095255;28;20427;-74
2021/12/17 03:25:53;;;;;;;95.93;33.00;;;;;;;7.36;100.00;104116.69;5088625;28;20459;-74
2021/12/17 03:28:19;;;;;;;99.70;35.97;;;;;;;7.36;100.00;104119.31;5105758;28;20103;-74
2021/12/17 03:30:45;;;;;;;101.63;40.38;;;;;;;7.36;100.00;104115.00;5097325;28;20506;-74
2021/12/17 03:33:11;;;;;;;101.95;44.83;;;;;;;7.36;100.00;104115.00;5090400;28;20479;-74
2021/12/17 03:35:36;;;;;;;115.13;48.65;;;;;;;7.36;100.00;104125.47;5101710;28;20040;-74
2021/12/17 03:38:02;;;;;;;117.32;50.42;;;;;;;7.37;100.00;104126.41;5076014;28;20028;-75
2021/12/17 03:40:31;;;;;;;117.95;51.45;;;;;;;7.37;100.00;104127.31;5094136;28;20035;-74
2021/12/17 03:43:01;;;;;;;129.35;52.10;;;;;;;7.38;100.00;104126.53;5107803;28;20028;-75
2021/12/17 03:45:27;;;;;;;107.03;43.17;;;;;;;7.39;100.00;104125.75;5078168;28;20502;-74
2021/12/17 03:47:53;;;;;;;91.50;37.00;;;;;;;7.38;100.00;104121.28;5100347;28;20031;-74
2021/12/17 03:50:18;;;;;;;93.40;36.60;;;;;;;7.38;100.00;104128.22;5098385;28;20016;-74
2021/12/17 03:52:44;;;;;;;83.03;33.47;;;;;;;7.37;100.00;104132.53;5076203;28;20391;-74
2021/12/17 03:55:09;;;;;;;81.93;33.38;;;;;;;7.37;100.00;104124.69;5112600;28;20396;-74
2021/12/17 03:57:36;;;;;;;92.18;34.25;;;;;;;7.38;100.00;104121.28;5110873;28;20188;-75
2021/12/17 04:00:05;;;;;;;84.57;32.67;;;;;;;7.38;100.00;104123.91;5086318;28;20020;-75
2021/12/17 04:02:30;;;;;;;86.63;32.95;;;;;;;7.37;100.00;104127.31;5097919;28;20027;-74
2021/12/17 04:04:56;;;;;;;88.28;30.02;;;;;;;7.36;100.00;104135.94;5103697;28;20044;-75
2021/12/17 04:07:21;;;;;;;75.57;29.85;;;;;;;7.33;100.00;104130.47;5100582;28;20054;-74
2021/12/17 04:09:46;;;;;;;74.28;31.60;;;;;;;7.33;100.00;104134.78;5108393;28;20059;-75
2021/12/17 04:12:16;;;;;;;77.10;30.45;;;;;;;7.32;100.00;104144.34;5087294;28;20052;-75
2021/12/17 04:14:45;;;;;;;72.72;28.25;;;;;;;7.33;100.00;104140.03;5093508;28;20036;-75
2021/12/17 04:17:11;;;;;;;62.50;26.27;;;;;;;7.32;100.00;104140.81;5090821;28;20076;-75
2021/12/17 04:19:37;;;;;;;62.50;27.23;;;;;;;7.31;100.00;104146.84;5085131;28;20493;-75
2021/12/17 04:22:04;;;;;;;66.60;27.75;;;;;;;7.29;100.00;104138.84;5085751;28;20114;-74
2021/12/17 04:24:30;;;;;;;61.40;26.17;;;;;;;7.29;100.00;104133.63;5097594;28;20139;-74
2021/12/17 04:26:55;;;;;;;61.53;26.20;;;;;;;7.30;100.00;104139.75;5109496;28;20035;-74
2021/12/17 04:29:22;;;;;;;62.47;25.95;;;;;;;7.26;100.00;104143.84;5082257;28;20467;-74
2021/12/17 04:31:53;;;;;;;68.85;28.67;;;;;;;7.25;100.00;104140.28;5079432;28;20019;-74
2021/12/17 04:34:19;;;;;;;70.35;29.02;;;;;;;7.24;100.00;104140.16;5095518;28;20137;-75
2021/12/17 04:36:47;;;;;;;78.32;30.27;;;;;;;7.24;100.00;104145.41;5079411;28;20497;-75
2021/12/17 04:39:15;;;;;;;83.25;31.15;;;;;;;7.24;100.00;104140.16;5091656;28;20058;-75
2021/12/17 04:41:56;;;;;;;85.43;29.85;;;;;;;7.22;100.00;104139.16;5093738;28;20024;-75
2021/12/17 04:44:26;;;;;;;79.30;29.52;;;;;;;7.21;100.00;104140.81;5106674;28;20068;-75
2021/12/17 04:47:04;;;;;;;74.03;27.48;;;;;;;7.22;100.00;104145.28;5106872;28;20554;-75
2021/12/17 04:57:43;;;;;;;80.50;25.88;;;;;;;7.21;100.00;104139.91;5098933;28;20165;-75
2021/12/17 05:00:18;;;;;;;79.65;24.90;;;;;;;7.21;100.00;104139.91;5087671;28;20020;-74
2021/12/17 05:02:48;;;;;;;75.60;23.85;;;;;;;7.22;100.00;104133.91;5086591;28;20053;-74
2021/12/17 05:05:15;;;;;;;73.95;24.73;;;;;;;7.21;100.00;104139.91;5090904;28;20106;-75
2021/12/17 05:07:46;;;;;;;72.88;22.90;;;;;;;7.22;100.00;104137.44;5082497;28;20047;-75
2021/12/17 05:18:29;;;;;;;71.22;20.80;;;;;;;7.18;100.00;104131.81;5101877;28;20030;-74
2021/12/17 05:21:01;;;;;;;69.45;21.27;;;;;;;7.19;100.00;104125.75;5108993;28;20084;-74
2021/12/17 05:23:35;;;;;;;67.25;20.98;;;;;;;7.19;100.00;104121.47;5076881;28;20028;-74
2021/12/17 05:26:07;;;;;;;75.15;20.73;;;;;;;7.19;100.00;104118.84;5075305;28;20035;-75
2021/12/17 05:28:32;;;;;;;62.33;20.15;;;;;;;7.20;100.00;104124.97;5105044;28;20476;-75
2021/12/17 05:30:58;;;;;;;71.18;20.27;;;;;;;7.19;100.00;104131.00;5080736;28;20020;-75
2021/12/17 05:33:25;;;;;;;65.15;20.35;;;;;;;7.19;100.00;104124.09;5099441;28;20494;-74
2021/12/17 05:35:52;;;;;;;66.10;19.38;;;;;;;7.18;100.00;104119.63;5106738;28;20115;-74
2021/12/17 05:38:20;;;;;;;61.75;19.08;;;;;;;7.18;100.00;104124.88;5083221;28;20035;-74
2021/12/17 05:40:46;;;;;;;67.82;18.77;;;;;;;7.18;100.00;104131.81;5112187;28;20023;-74
2021/12/17 05:43:14;;;;;;;68.65;20.85;;;;;;;7.20;100.00;104133.78;5112021;28;20059;-74
2021/12/17 05:48:20;;;;;;;77.88;19.50;;;;;;;7.19;100.00;104142.41;5095797;28;20121;-74
2021/12/17 05:50:47;;;;;;;70.10;20.90;;;;;;;7.19;100.00;104137.19;5096610;28;20040;-74
2021/12/17 05:53:13;;;;;;;76.45;20.48;;;;;;;7.20;100.00;104135.47;5090789;28;20038;-74
2021/12/17 05:55:39;;;;;;;82.22;20.77;;;;;;;7.18;100.00;104137.97;5104834;28;20106;-73
2021/12/17 05:58:05;;;;;;;74.47;20.27;;;;;;;7.18;100.00;104142.28;5096924;28;20099;-74
2021/12/17 06:00:32;;;;;;;77.75;21.30;;;;;;;7.18;100.00;104144.91;5101358;28;20488;-75
2021/12/17 06:02:58;;;;;;;75.43;21.05;;;;;;;7.18;100.00;104144.91;5102372;28;20479;-74
2021/12/17 06:05:25;;;;;;;77.28;20.48;;;;;;;7.18;100.00;104147.53;5085208;28;20043;-74
2021/12/17 06:07:50;;;;;;;82.88;19.83;;;;;;;7.17;100.00;104143.06;5079092;28;20031;-74
2021/12/17 06:10:16;;;;;;;73.47;19.58;;;;;;;7.17;100.00;104148.31;5106900;28;20039;-74
2021/12/17 06:12:42;;;;;;;76.18;19.63;;;;;;;7.17;100.00;104143.06;5089095;28;20027;-74
2021/12/17 06:15:11;;;;;;;66.00;19.08;;;;;;;7.19;100.00;104150.28;5100572;28;20035;-72
2021/12/17 06:17:36;;;;;;;76.03;18.50;;;;;;;7.19;100.00;104151.97;5097644;28;21527;-75
2021/12/17 06:20:03;;;;;;;75.03;18.67;;;;;;;7.18;100.00;104161.53;5081161;28;20063;-73
2021/12/17 06:22:28;;;;;;;71.75;17.40;;;;;;;7.18;100.00;104160.63;5105960;28;20114;-72
2021/12/17 06:24:53;;;;;;;71.60;18.27;;;;;;;7.17;100.00;104164.03;5101497;28;20134;-73
2021/12/17 06:27:20;;;;;;;74.28;18.48;;;;;;;7.16;100.00;104163.13;5103457;28;20044;-72
2021/12/17 06:29:46;;;;;;;70.50;19.30;;;;;;;7.16;100.00;104162.19;5100377;28;20430;-72
2021/12/17 06:32:12;;;;;;;78.10;18.80;;;;;;;7.15;100.00;104163.91;5098094;28;20035;-72
2021/12/17 06:34:38;;;;;;;70.60;19.65;;;;;;;7.15;100.00;104168.19;5084674;28;20028;-72
2021/12/17 06:37:05;;;;;;;62.97;18.10;;;;;;;7.15;100.00;104165.59;5108169;28;20524;-73
2021/12/17 06:39:32;;;;;;;81.28;20.25;;;;;;;7.15;100.00;104177.00;5087132;28;20038;-74
2021/12/17 06:41:58;;;;;;;66.95;17.95;;;;;;;7.16;100.00;104172.66;5100227;28;20027;-72
2021/12/17 06:44:26;;;;;;;90.15;19.85;;;;;;;7.15;100.00;104169.13;5091380;28;20474;-73
2021/12/17 06:47:01;;;;;;;68.43;17.73;;;;;;;7.17;100.00;104174.50;5085195;28;20035;-73
2021/12/17 06:54:56;;;;;;;71.05;18.65;;;;;;;7.17;100.00;104174.50;5106071;28;20055;-74
2021/12/17 07:10:48;;;;;;;72.30;17.52;;;;;;;7.18;100.00;104179.88;5101725;28;20490;-75
2021/12/17 07:24:15;;;;;;;66.78;17.15;;;;;;;7.19;100.00;104186.94;5101385;28;20050;-75
2021/12/17 07:32:31;;;;;;;72.70;18.77;;;;;;;7.22;100.00;104199.38;5053360;28;20035;-73
2021/12/17 07:39:53;;;;;;;62.20;16.70;;;;;;;7.22;100.00;104196.75;5103355;28;20043;-73
2021/12/17 07:42:18;;;;;;;68.35;17.27;;;;;;;7.21;100.00;104192.31;5099992;28;20035;-72
2021/12/17 07:44:44;;;;;;;67.32;16.77;;;;;;;7.18;100.00;104195.56;5104338;28;20085;-73
2021/12/17 07:47:09;;;;;;;70.80;17.17;;;;;;;7.19;100.00;104196.47;5095628;28;20062;-73
2021/12/17 07:49:36;;;;;;;77.57;18.52;;;;;;;7.20;100.00;104208.78;5109490;28;20103;-73
2021/12/17 07:52:02;;;;;;;75.50;19.23;;;;;;;7.21;100.00;104208.03;5095938;28;20020;-73
2021/12/17 07:54:28;;;;;;;74.28;19.73;;;;;;;7.22;100.00;104209.88;5100144;28;20027;-73
2021/12/17 07:56:53;;;;;;;68.97;16.67;;;;;;;7.21;100.00;104210.63;5102781;28;20020;-73
2021/12/17 07:59:18;;;;;;;67.72;17.27;;;;;;;7.22;100.00;104208.16;5099453;28;20023;-73
2021/12/17 08:01:44;;;;;;;80.47;18.08;;;;;;;7.21;100.00;104208.91;5084026;28;20024;-73
2021/12/17 08:04:10;;;;;;;82.65;17.88;;;;;;;7.22;100.00;104220.34;5085072;28;20020;-73
2021/12/17 08:06:36;;;;;;;75.43;18.20;;;;;;;7.23;100.00;104222.16;5100003;28;20104;-72
2021/12/17 08:09:03;;;;;;;71.47;17.10;;;;;;;7.23;100.00;104217.84;5099295;28;20102;-76
2021/12/17 08:11:28;;;;;;;73.72;18.48;;;;;;;7.25;100.00;104224.13;5080737;28;20059;-76
2021/12/17 08:13:58;;;;;;;73.03;19.05;;;;;;;7.26;100.00;104222.44;5099390;28;20036;-76
2021/12/17 08:31:59;;;;;;;74.78;17.65;;;;;;;7.38;100.00;104205.13;5099424;28;20074;-76
2021/12/17 08:34:28;;;;;;;81.28;17.60;;;;;;;7.39;100.00;104212.19;5097906;28;20383;-75
2021/12/17 08:36:53;;;;;;;73.80;18.73;;;;;;;7.41;100.00;104200.13;5105275;28;20453;-76
2021/12/17 08:39:19;;;;;;;78.90;19.00;;;;;;;7.42;100.00;104207.22;5106157;28;20024;-75
2021/12/17 08:41:49;;;;;;;76.38;18.13;;;;;;;7.43;100.00;104202.88;5104191;28;20024;-76
2021/12/17 08:44:15;;;;;;;74.18;17.65;;;;;;;7.42;100.00;104209.84;5102292;28;20020;-76
2021/12/17 08:46:41;;;;;;;64.28;17.10;;;;;;;7.44;100.00;104207.34;5083069;28;20027;-76
2021/12/17 08:49:06;;;;;;;75.63;18.42;;;;;;;7.46;100.00;104204.84;5106944;28;20032;-75
2021/12/17 08:51:32;;;;;;;74.65;17.48;;;;;;;7.46;100.00;104199.59;5092427;28;20024;-76
2021/12/17 08:53:58;;;;;;;76.32;19.17;;;;;;;7.47;100.00;104196.19;5103460;28;20028;-75
2021/12/17 08:56:28;;;;;;;83.85;19.50;;;;;;;7.50;100.00;104199.06;5109367;28;20422;-75
2021/12/17 08:58:53;;;;;;;80.95;18.15;;;;;;;7.52;100.00;104202.75;5082046;28;20525;-76
2021/12/17 09:01:20;;;;;;;69.38;19.00;;;;;;;7.54;100.00;104203.78;5109512;28;20028;-75
2021/12/17 09:03:47;;;;;;;80.40;20.35;;;;;;;7.57;100.00;104199.72;5104526;28;20102;-76
2021/12/17 09:06:14;;;;;;;81.82;18.73;;;;;;;7.62;100.00;104209.66;5106780;28;20024;-75
2021/12/17 09:08:41;;;;;;;76.25;17.75;;;;;;;7.66;100.00;104210.03;5109484;28;20097;-75
2021/12/17 09:11:07;;;;;;;69.75;16.10;;;;;;;7.70;100.00;104217.34;5101635;28;20114;-76
2021/12/17 09:13:32;;;;;;;64.20;15.57;;;;;;;7.75;100.00;104209.88;5084311;28;20403;-76
2021/12/17 09:16:05;;;;;;;72.53;15.23;;;;;;;7.76;100.00;104212.63;5081727;28;20039;-75
2021/12/17 09:18:31;;;;;;;69.93;16.23;;;;;;;7.80;100.00;104207.63;5101657;28;20387;-76
2021/12/17 09:21:00;;;;;;;71.05;17.33;;;;;;;7.84;100.00;104209.72;5087288;28;20417;-75
2021/12/17 09:23:25;;;;;;;73.13;17.27;;;;;;;7.84;100.00;104212.34;5082052;28;20032;-76
2021/12/17 09:25:50;;;;;;;65.32;16.17;;;;;;;7.89;100.00;104211.03;5088520;28;20028;-75
2021/12/17 09:28:16;;;;;;;75.63;16.73;;;;;;;7.90;100.00;104210.25;5087879;28;20532;-72
2021/12/17 09:30:42;;;;;;;66.82;15.90;;;;;;;7.96;100.00;104215.06;5082737;28;20039;-72
2021/12/17 09:33:07;;;;;;;68.88;16.60;;;;;;;7.96;100.00;104215.97;5083304;28;20024;-72
2021/12/17 09:35:33;;;;;;;74.65;17.08;;;;;;;7.98;100.00;104214.41;5096778;28;20024;-72
2021/12/17 09:37:58;;;;;;;71.38;15.52;;;;;;;8.02;100.00;104216.47;5100306;28;20502;-72
2021/12/17 09:40:24;;;;;;;62.33;15.07;;;;;;;8.04;100.00;104222.75;5105999;28;20026;-72
2021/12/17 09:42:49;;;;;;;63.17;16.58;;;;;;;8.07;100.00;104225.66;5085549;28;20027;-72
2021/12/17 09:45:17;;;;;;;64.22;17.38;;;;;;;8.13;100.00;104232.19;5089586;28;20038;-71
2021/12/17 09:47:45;;;;;;;57.75;15.35;;;;;;;8.18;100.00;104230.81;5107167;28;20437;-72
2021/12/17 09:50:14;;;;;;;58.50;14.85;;;;;;;8.22;100.00;104235.53;5088451;28;20376;-73
2021/12/17 09:52:41;;;;;;;60.42;14.45;;;;;;;8.24;100.00;104233.97;5089564;28;20030;-72
2021/12/17 09:55:08;;;;;;;61.13;14.88;;;;;;;8.23;100.00;104232.13;5084600;28;20032;-75
2021/12/17 09:57:36;;;;;;;53.35;14.23;;;;;;;8.23;100.00;104237.38;5094357;28;20062;-75
2021/12/17 10:00:15;;;;;;;45.45;12.95;;;;;;;8.25;100.00;104246.28;5097814;28;20020;-75
2021/12/17 10:02:44;;;;;;;43.80;12.02;;;;;;;8.29;100.00;104243.13;5086338;28;20403;-74
2021/12/17 10:05:31;;;;;;;37.15;10.80;;;;;;;8.32;100.00;104247.72;5092629;28;20083;-75
2021/12/17 10:08:06;;;;;;;36.63;10.40;;;;;;;8.23;100.00;104253.13;5080714;28;20061;-75
2021/12/17 10:10:38;;;;;;;41.30;12.02;;;;;;;8.25;100.00;104251.53;5104689;28;20486;-74
2021/12/17 10:13:14;;;;;;;44.13;12.50;;;;;;;8.25;100.00;104251.53;5085044;28;20024;-75
2021/12/17 10:15:45;;;;;;;48.03;12.93;;;;;;;8.25;100.00;104252.44;5094528;28;20520;-76
2021/12/17 10:18:11;;;;;;;30.92;10.20;;;;;;;8.31;100.00;104257.28;5104983;28;20052;-74
2021/12/17 10:21:01;;;;;;;35.13;11.43;;;;;;;8.26;100.00;104255.97;5101099;28;20020;-75
2021/12/17 10:23:28;;;;;;;30.13;10.00;;;;;;;8.26;100.00;104254.28;5081299;28;20044;-75
2021/12/17 10:25:54;;;;;;;27.75;8.77;;;;;;;8.31;100.00;104267.75;5080106;28;20028;-75
2021/12/17 10:28:19;;;;;;;26.10;8.25;;;;;;;8.32;100.00;104263.47;5091984;28;20024;-75
2021/12/17 10:30:48;;;;;;;26.85;8.48;;;;;;;8.32;100.00;104268.72;5103030;28;20103;-75
2021/12/17 10:33:18;;;;;;;24.95;8.40;;;;;;;8.36;100.00;104276.94;5078991;28;20028;-75
2021/12/17 10:35:47;;;;;;;30.55;9.00;;;;;;;8.33;100.00;104270.50;5098934;28;20032;-75
2021/12/17 10:38:16;;;;;;;25.88;8.40;;;;;;;8.36;100.00;104271.69;5096656;28;20032;-76
2021/12/17 10:41:02;;;;;;;18.40;8.02;;;;;;;8.41;100.00;104264.16;5087224;28;20027;-75
2021/12/17 10:43:35;;;;;;;20.98;6.32;;;;;;;8.37;100.00;104263.03;5095995;28;20028;-75
2021/12/17 10:46:09;;;;;;;15.13;6.63;;;;;;;8.40;100.00;104260.66;5109647;28;20039;-72
2021/12/17 10:51:13;;;;;;;17.95;6.80;;;;;;;8.37;100.00;104260.41;5101783;28;20027;-71
2021/12/17 10:53:43;;;;;;;17.45;6.18;;;;;;;8.43;100.00;104268.75;5108694;28;20074;-72
2021/12/17 10:56:15;;;;;;;19.70;6.90;;;;;;;8.42;100.00;104256.44;5101644;28;20080;-71
2021/12/17 10:59:05;;;;;;;17.77;6.53;;;;;;;8.37;100.00;104263.03;5104173;28;20054;-72
2021/12/17 11:01:44;;;;;;;22.70;6.93;;;;;;;8.32;100.00;104266.97;5101345;28;20387;-74
2021/12/17 11:04:41;;;;;;;19.13;6.88;;;;;;;8.35;100.00;104264.59;5089637;28;20038;-74
2021/12/17 11:07:10;;;;;;;24.25;7.63;;;;;;;8.34;100.00;104265.41;5077786;28;20109;-73
2021/12/17 11:09:53;;;;;;;17.20;6.78;;;;;;;8.29;100.00;104256.25;5107664;28;20122;-73
2021/12/17 11:12:31;;;;;;;18.88;6.18;;;;;;;8.27;100.00;104256.13;5108637;28;20099;-74
2021/12/17 11:15:21;;;;;;;15.43;5.90;;;;;;;8.21;100.00;104258.25;5112388;28;20130;-74
2021/12/17 11:17:55;;;;;;;19.80;6.68;;;;;;;8.21;100.00;104254.72;5087529;28;20046;-74
2021/12/17 11:20:28;;;;;;;11.77;5.05;;;;;;;8.19;100.00;104253.66;5084481;28;20046;-73
2021/12/17 11:22:55;;;;;;;12.88;5.60;;;;;;;8.23;100.00;104258.34;5095032;28;20028;-74
2021/12/17 11:25:23;;;;;;;12.38;5.03;;;;;;;8.20;100.00;104258.13;5108913;28;20023;-74
2021/12/17 11:27:49;;;;;;;11.95;4.97;;;;;;;8.20;100.00;104264.28;5095804;28;20372;-74
2021/12/17 11:30:18;;;;;;;13.43;4.95;;;;;;;8.25;100.00;104254.16;5110342;28;20051;-73
2021/12/17 11:32:45;;;;;;;14.93;6.40;;;;;;;8.26;100.00;104248.09;5111016;28;20536;-74
2021/12/17 11:35:13;;;;;;;12.98;5.32;;;;;;;8.24;100.00;104249.69;5097560;28;20027;-74
2021/12/17 11:37:42;;;;;;;14.02;5.25;;;;;;;8.25;100.00;104251.53;5099879;28;20055;-73
2021/12/17 11:40:17;;;;;;;13.70;5.70;;;;;;;8.24;100.00;104247.09;5099966;28;20057;-73
2021/12/17 11:43:14;;;;;;;9.95;4.78;;;;;;;8.24;100.00;104239.22;5076274;28;20040;-74
2021/12/17 11:45:39;;;;;;;13.07;4.53;;;;;;;8.25;100.00;104241.06;5108159;28;20111;-73
2021/12/17 11:48:14;;;;;;;7.70;4.32;;;;;;;8.25;100.00;104235.81;5097921;28;20445;-73
2021/12/17 11:50:39;;;;;;;9.50;3.72;;;;;;;8.20;100.00;104237.13;5102397;28;20039;-73
2021/12/17 11:53:24;;;;;;;8.70;3.88;;;;;;;8.27;100.00;104245.63;5083148;28;20019;-73
2021/12/17 11:56:00;;;;;;;7.97;3.60;;;;;;;8.26;100.00;104242.84;5107872;28;20040;-74
2021/12/17 11:58:46;;;;;;;9.98;3.67;;;;;;;8.28;100.00;104243.91;5108722;28;20456;-74
2021/12/17 12:01:12;;;;;;;9.48;4.07;;;;;;;8.35;100.00;104237.44;5094658;28;20032;-74
2021/12/17 12:03:37;;;;;;;10.65;3.83;;;;;;;8.38;100.00;104240.31;5091357;28;20039;-73
2021/12/17 12:06:04;;;;;;;5.05;2.88;;;;;;;8.41;100.00;104231.00;5108291;28;20107;-73
2021/12/17 12:08:47;;;;;;;7.15;3.70;;;;;;;8.32;100.00;104238.13;5094943;28;20065;-73
2021/12/17 12:11:22;;;;;;;6.93;3.60;;;;;;;8.27;100.00;104229.88;5082341;28;20039;-73
2021/12/17 12:13:50;;;;;;;10.82;3.15;;;;;;;8.30;100.00;104237.06;5091780;28;20027;-72
2021/12/17 12:16:18;;;;;;;7.95;3.20;;;;;;;8.29;100.00;104237.88;5095137;28;20030;-73
2021/12/17 12:18:54;;;;;;;6.47;3.55;;;;;;;8.27;100.00;104249.94;5096345;28;20459;-71
2021/12/17 12:21:22;;;;;;;5.10;3.10;;;;;;;8.25;100.00;104249.81;5115955;28;20034;-72
2021/12/17 12:23:57;;;;;;;5.50;3.33;;;;;;;8.19;100.00;104243.16;5114512;28;20114;-71
2021/12/17 12:26:24;;;;;;;7.20;3.63;;;;;;;8.19;100.00;104248.41;5085444;28;20023;-71
2021/12/17 12:29:03;;;;;;;4.70;3.15;;;;;;;8.15;100.00;104251.56;5113692;28;20061;-71
2021/12/17 12:31:34;;;;;;;5.53;2.65;;;;;;;8.17;100.00;104247.38;5092355;28;20023;-71
2021/12/17 12:34:05;;;;;;;4.85;2.38;;;;;;;8.11;100.00;104247.78;5104373;28;20035;-71
2021/12/17 12:37:05;;;;;;;3.38;2.25;;;;;;;8.13;100.00;104250.56;5105363;28;20046;-71
2021/12/17 12:39:37;;;;;;;5.07;2.67;;;;;;;8.09;100.00;104252.91;5115425;28;20051;-72
2021/12/17 12:42:02;;;;;;;2.83;1.95;;;;;;;8.09;100.00;104247.66;5113714;28;20049;-71
2021/12/17 12:44:46;;;;;;;6.28;2.47;;;;;;;8.05;100.00;104252.53;5114594;28;20031;-71
2021/12/17 12:47:35;;;;;;;;;;;;;;;8.01;100.00;104253.97;5092417;28;20114;-71
2021/12/17 12:50:04;;;;;;;5.88;2.85;;;;;;;7.96;100.00;104247.44;5107748;28;20331;-71
2021/12/17 12:52:29;;;;;;;5.43;2.90;;;;;;;7.94;100.00;104243.78;5097594;28;20060;-71
2021/12/17 12:55:05;;;;;;;5.85;3.13;;;;;;;7.94;100.00;104239.44;5110415;28;20494;-71
2021/12/17 12:57:39;;;;;;;5.85;3.00;;;;;;;7.98;100.00;104237.09;5096868;28;20046;-71
2021/12/17 13:00:10;;;;;;;10.18;3.35;;;;;;;7.95;100.00;104235.13;5112160;28;20476;-71
2021/12/17 13:02:36;;;;;;;9.27;4.00;;;;;;;7.94;100.00;104230.69;5097833;28;20671;-71
2021/12/17 13:05:04;;;;;;;7.43;4.30;;;;;;;7.96;100.00;104231.69;5101987;28;20070;-71
2021/12/17 13:07:49;;;;;;;6.95;3.70;;;;;;;7.99;100.00;104225.78;5099878;28;20027;-71
2021/12/17 13:10:20;;;;;;;6.97;4.05;;;;;;;7.97;100.00;104223.06;5100145;28;20027;-72
2021/12/17 13:13:22;;;;;;;8.40;4.78;;;;;;;7.96;100.00;104222.94;5097256;28;20042;-71
2021/12/17 13:24:36;;;;;;;4.80;3.30;;;;;;;7.86;100.00;104223.88;5105653;28;20100;-71
2021/12/17 13:27:09;;;;;;;3.67;2.55;;;;;;;7.87;100.00;104221.38;5095721;28;20066;-70
2021/12/17 13:29:38;;;;;;;3.92;2.42;;;;;;;7.89;100.00;104213.63;5096390;28;20035;-71
2021/12/17 13:32:07;;;;;;;5.70;3.42;;;;;;;7.84;100.00;104210.66;5078109;28;20016;-71
2021/12/17 13:34:32;;;;;;;6.68;3.45;;;;;;;7.85;100.00;104206.31;5106508;28;20056;-71
2021/12/17 13:37:03;;;;;;;6.93;3.80;;;;;;;7.85;100.00;104214.19;5096655;28;20214;-71
2021/12/17 13:39:36;;;;;;;6.78;3.78;;;;;;;7.88;100.00;104214.41;5099009;28;20471;-72
2021/12/17 13:42:02;;;;;;;6.05;3.88;;;;;;;7.90;100.00;104207.63;5093020;28;20565;-71
2021/12/17 13:44:41;;;;;;;5.10;3.53;;;;;;;7.96;100.00;104204.56;5104106;28;20376;-71
2021/12/17 13:47:23;;;;;;;4.68;3.45;;;;;;;8.04;100.00;104201.75;5108588;28;20057;-71
2021/12/17 13:49:58;;;;;;;5.47;3.40;;;;;;;8.10;100.00;104210.16;5080793;28;21177;-72
2021/12/17 13:52:27;;;;;;;5.93;3.30;;;;;;;8.13;100.00;104204.25;5099760;28;20470;-72
2021/12/17 13:54:54;;;;;;;6.00;3.55;;;;;;;8.19;100.00;104207.38;5105332;28;20387;-72
2021/12/17 13:57:23;;;;;;;5.70;3.42;;;;;;;8.20;100.00;104206.56;5096055;28;20129;-71
2021/12/17 13:59:50;;;;;;;5.55;3.55;;;;;;;8.19;100.00;104206.44;5108606;28;20039;-72
2021/12/17 14:02:17;;;;;;;6.28;3.65;;;;;;;8.18;100.00;104210.78;5108980;28;20032;-72
2021/12/17 14:04:57;;;;;;;6.13;3.58;;;;;;;8.19;100.00;104219.56;5102269;28;20418;-71
2021/12/17 14:07:27;;;;;;;7.07;3.85;;;;;;;8.22;100.00;104218.09;5080504;28;20061;-72
2021/12/17 14:10:02;;;;;;;5.22;3.45;;;;;;;8.26;100.00;104203.50;5110436;28;20032;-72
2021/12/17 14:12:31;;;;;;;5.97;3.60;;;;;;;8.25;100.00;104214.81;5102426;28;20370;-71
2021/12/17 14:14:59;;;;;;;6.40;3.78;;;;;;;8.25;100.00;104209.56;5114189;28;20041;-71
2021/12/17 14:17:31;;;;;;;8.15;3.88;;;;;;;8.27;100.00;104211.53;5098889;28;20467;-71
2021/12/17 14:20:11;;;;;;;6.13;3.85;;;;;;;8.26;100.00;104216.63;5091603;28;20031;-71
2021/12/17 14:22:40;;;;;;;5.75;3.55;;;;;;;8.26;100.00;104216.63;5100879;28;20031;-71
2021/12/17 14:25:29;;;;;;;5.53;3.50;;;;;;;8.23;100.00;104203.25;5112035;28;20106;-70
2021/12/17 14:27:56;;;;;;;6.25;3.75;;;;;;;8.15;100.00;104213.13;5095492;28;20387;-71